createdAt,value
2022-12-18T00:07:45.992Z,-7.00
2022-12-18T00:16:12.639Z,-7.01
2022-12-18T00:24:36.791Z,-7.05
2022-12-18T00:33:00.299Z,-7.06
2022-12-18T00:41:43.113Z,-7.09
2022-12-18T00:50:06.650Z,-7.04
2022-12-18T00:58:29.573Z,-7.05
2022-12-18T01:06:52.615Z,-6.99
2022-12-18T01:15:16.385Z,-6.93
2022-12-18T01:23:40.254Z,-6.94
2022-12-18T01:32:03.533Z,-6.93
2022-12-18T01:40:26.566Z,-6.89
2022-12-18T01:48:54.932Z,-6.91
2022-12-18T01:57:18.047Z,-6.87
2022-12-18T02:05:50.230Z,-6.81
2022-12-18T02:14:50.918Z,-6.80
2022-12-18T02:23:32.831Z,-6.73
2022-12-18T02:32:05.625Z,-6.72
2022-12-18T02:40:30.771Z,-6.73
2022-12-18T02:49:07.316Z,-6.69
2022-12-18T02:57:42.914Z,-6.67
2022-12-18T03:06:11.376Z,-6.61
2022-12-18T03:14:35.345Z,-6.57
2022-12-18T03:23:06.301Z,-6.53
2022-12-18T03:31:32.273Z,-6.51
2022-12-18T03:40:00.887Z,-6.46
2022-12-18T03:48:37.560Z,-6.37
2022-12-18T03:57:23.187Z,-6.32
2022-12-18T04:05:51.414Z,-6.24
2022-12-18T04:14:18.357Z,-6.21
2022-12-18T04:22:43.917Z,-6.25
2022-12-18T04:31:08.177Z,-6.20
2022-12-18T04:39:31.809Z,-6.10
2022-12-18T04:48:00.471Z,-6.08
2022-12-18T04:56:23.389Z,-6.09
2022-12-18T05:04:46.446Z,-6.08
2022-12-18T05:13:09.407Z,-6.14
2022-12-18T05:21:32.364Z,-6.16
2022-12-18T05:29:55.206Z,-6.11
2022-12-18T05:38:18.111Z,-6.09
2022-12-18T05:46:40.947Z,-6.10
2022-12-18T05:55:04.035Z,-6.02
2022-12-18T06:03:32.180Z,-6.02
2022-12-18T06:11:56.794Z,-6.06
2022-12-18T06:20:20.208Z,-6.06
2022-12-18T06:28:43.308Z,-6.04
2022-12-18T06:37:06.174Z,-6.08
2022-12-18T06:45:29.141Z,-6.08
2022-12-18T06:53:54.519Z,-6.09
2022-12-18T07:02:17.473Z,-6.13
2022-12-18T07:10:47.475Z,-6.15
2022-12-18T07:19:11.230Z,-6.15
2022-12-18T07:27:34.164Z,-6.10
2022-12-18T07:35:57.207Z,-6.11
2022-12-18T07:44:20.080Z,-6.19
2022-12-18T07:52:43.096Z,-6.17
2022-12-18T08:01:08.723Z,-6.07
2022-12-18T08:09:31.647Z,-6.03
2022-12-18T08:17:58.186Z,-5.92
2022-12-18T08:26:22.409Z,-5.80
2022-12-18T08:34:45.348Z,-5.73
2022-12-18T08:43:30.537Z,-5.67
2022-12-18T08:51:58.266Z,-5.67
2022-12-18T09:00:21.428Z,-5.70
2022-12-18T09:08:48.032Z,-5.73
2022-12-18T09:17:11.039Z,-5.55
2022-12-18T09:25:36.864Z,-5.43
2022-12-18T09:33:59.892Z,-5.36
2022-12-18T09:42:23.326Z,-5.33
2022-12-18T09:50:47.546Z,-5.39
2022-12-18T09:59:22.265Z,-5.32
2022-12-18T10:07:58.705Z,-5.35
2022-12-18T10:16:24.877Z,-5.29
2022-12-18T10:24:56.954Z,-5.17
2022-12-18T10:33:24.344Z,-5.12
2022-12-18T10:41:47.368Z,-5.01
2022-12-18T10:59:22.696Z,-4.76
2022-12-18T11:07:51.768Z,-4.62
2022-12-18T11:16:21.014Z,-4.52
2022-12-18T11:34:30.632Z,-4.54
2022-12-18T11:43:14.707Z,-4.59
2022-12-18T11:52:09.877Z,-4.59
2022-12-18T12:00:36.141Z,-4.55
2022-12-18T12:09:11.385Z,-4.60
2022-12-18T12:17:43.431Z,-4.57
2022-12-18T12:26:16.610Z,-4.55
2022-12-18T12:34:45.584Z,-4.61
2022-12-18T12:43:23.930Z,-4.65
2022-12-18T12:51:52.305Z,-4.72
2022-12-18T13:00:20.369Z,-4.72
2022-12-18T13:09:00.455Z,-4.74
2022-12-18T13:17:30.410Z,-4.89
2022-12-18T13:26:11.165Z,-4.97
2022-12-18T13:34:36.007Z,-5.06
2022-12-18T13:43:14.721Z,-5.06
2022-12-18T13:51:51.509Z,-5.07
2022-12-18T14:00:25.460Z,-5.11
2022-12-18T14:08:48.898Z,-5.18
2022-12-18T14:17:12.986Z,-5.34
2022-12-18T14:25:36.045Z,-5.46
2022-12-18T14:33:59.078Z,-5.54
2022-12-18T14:42:22.174Z,-5.60
2022-12-18T14:50:46.106Z,-5.66
2022-12-18T14:59:24.249Z,-5.74
2022-12-18T15:07:51.327Z,-5.87
2022-12-18T15:16:14.405Z,-5.91
2022-12-18T15:24:37.438Z,-5.87
2022-12-18T15:33:27.049Z,-5.90
2022-12-18T15:42:09.515Z,-5.95
2022-12-18T15:50:32.483Z,-6.01
2022-12-18T15:58:55.340Z,-5.99
2022-12-18T16:07:24.633Z,-5.95
2022-12-18T16:15:48.757Z,-6.04
2022-12-18T16:24:20.475Z,-6.19
2022-12-18T16:32:43.643Z,-6.16
2022-12-18T16:41:33.175Z,-6.10
2022-12-18T16:49:56.139Z,-6.19
2022-12-18T16:58:19.004Z,-6.29
2022-12-18T17:06:45.271Z,-6.36
2022-12-18T17:15:09.158Z,-6.45
2022-12-18T17:23:32.292Z,-6.43
2022-12-18T17:31:55.423Z,-6.38
2022-12-18T17:40:20.104Z,-6.48
2022-12-18T17:48:42.966Z,-6.49
2022-12-18T17:57:05.914Z,-6.51
2022-12-18T18:05:29.007Z,-6.59
2022-12-18T18:14:01.549Z,-6.66
2022-12-18T18:22:24.506Z,-6.64
2022-12-18T18:30:48.239Z,-6.67
2022-12-18T18:39:12.771Z,-6.73
2022-12-18T18:47:35.705Z,-6.73
2022-12-18T18:56:37.482Z,-6.73
2022-12-18T19:04:46.223Z,-6.78
2022-12-18T19:13:22.182Z,-6.77
2022-12-18T19:21:45.272Z,-6.74
2022-12-18T19:30:08.920Z,-6.80
2022-12-18T19:38:32.289Z,-6.86
2022-12-18T19:46:55.995Z,-6.83
2022-12-18T19:55:18.928Z,-6.94
2022-12-18T20:03:42.353Z,-7.10
2022-12-18T20:12:07.230Z,-7.18
2022-12-18T20:20:30.114Z,-7.19
2022-12-18T20:28:55.028Z,-7.33
2022-12-18T20:37:18.033Z,-7.34
2022-12-18T20:45:43.215Z,-7.32
2022-12-18T20:54:11.623Z,-7.35
2022-12-18T21:02:35.432Z,-7.39
2022-12-18T21:11:36.260Z,-7.39
2022-12-18T21:19:59.899Z,-7.50
2022-12-18T21:28:23.157Z,-7.58
2022-12-18T21:36:47.127Z,-7.72
2022-12-18T21:45:12.413Z,-7.94
2022-12-18T21:53:36.399Z,-8.10
2022-12-18T22:02:06.330Z,-8.11
2022-12-18T22:10:29.250Z,-8.06
2022-12-18T22:18:52.114Z,-8.08
2022-12-18T22:27:15.057Z,-8.00
2022-12-18T22:35:37.980Z,-7.90
2022-12-18T22:44:01.676Z,-7.90
2022-12-18T22:52:25.537Z,-7.89
2022-12-18T23:00:48.922Z,-7.87
2022-12-18T23:09:39.255Z,-7.93
2022-12-18T23:18:02.091Z,-7.87
2022-12-18T23:26:26.169Z,-7.84
2022-12-18T23:34:49.029Z,-7.83
2022-12-18T23:43:11.898Z,-7.78
2022-12-18T23:51:34.740Z,-7.82
2022-12-18T23:59:59.022Z,-7.77
